Time;durP1;ratioP1;P1;durP2;ratioP2;P2;SDS_P1;SDS_P2;PMS_P1;PMS_P2;Temp;Humidity;BMP_temperature;BMP_pressure;BME280_temperature;BME280_humidity;BME280_pressure;Samples;Min_cycle;Max_cycle;Signal;HPM_P1;HPM_P2
2023/04/08 00:01:16;;;;;;;;;;;3.90;99.90;;;;;;6145938;23;19921;-93
2023/04/08 00:03:42;;;;;;;;;;;4.50;99.90;;;;;;6121471;23;19920;-95
2023/04/08 00:06:08;;;;;;;;;;;5.10;99.90;;;;;;6121654;23;19920;-95
2023/04/08 00:08:34;;;;;;;;;;;4.90;99.90;;;;;;6121437;23;19928;-95
2023/04/08 00:11:00;;;;;;;;;;;4.90;99.90;;;;;;6120953;23;19931;-95
2023/04/08 00:13:25;;;;;;;;;;;4.60;99.90;;;;;;6120924;23;19928;-95
2023/04/08 00:15:54;;;;;;;;;;;4.40;99.90;;;;;;6121515;23;19987;-95
2023/04/08 00:18:20;;;;;;;;;;;4.60;99.90;;;;;;6121516;23;19924;-93
2023/04/08 00:20:46;;;;;;;;;;;4.90;99.90;;;;;;6145850;23;19927;-94
2023/04/08 00:23:12;;;;;;;;;;;4.50;99.90;;;;;;6146190;23;19959;-93
2023/04/08 00:25:37;;;;;;;;;;;4.20;99.90;;;;;;6121922;23;19962;-95
2023/04/08 00:28:05;;;;;;;;;;;2.20;99.90;;;;;;6145839;23;19924;-94
2023/04/08 00:30:31;;;;;;;;;;;4.80;99.90;;;;;;6121970;23;19948;-95
2023/04/08 00:32:57;;;;;;;;;;;4.20;99.90;;;;;;6145944;23;19931;-95
2023/04/08 00:35:23;;;;;;;;;;;4.50;99.90;;;;;;6145776;23;19920;-95
2023/04/08 00:37:49;;;;;;;;;;;4.70;99.90;;;;;;6122439;23;19975;-94
2023/04/08 00:40:15;;;;;;;;;;;4.20;99.90;;;;;;6120423;23;19920;-94
2023/04/08 00:42:59;;;;;;;;;;;4.10;99.90;;;;;;5131006;27;19911;-88
2023/04/08 00:45:25;;;;;;;;;;;4.10;99.90;;;;;;5106863;28;19930;-88
2023/04/08 00:47:51;;;;;;;;;;;4.10;99.90;;;;;;5123772;28;20279;-88
2023/04/08 00:50:17;;;;;;;;;;;4.10;99.90;;;;;;5118770;28;20019;-88
2023/04/08 00:52:45;;;;;;;;;;;4.10;99.90;;;;;;5125444;28;19981;-88
2023/04/08 00:55:10;;;;;;;;;;;4.10;99.90;;;;;;5118428;28;19924;-88
2023/04/08 00:57:36;;;;;;;;;;;4.10;99.90;;;;;;5104039;28;19930;-87
2023/04/08 01:00:04;;;;;;;;;;;5.00;99.90;;;;;;5072723;28;19924;-88
2023/04/08 01:02:35;;;;;;;;;;;4.00;99.90;;;;;;5111481;28;19924;-88
2023/04/08 01:05:00;;;;;;;;;;;4.10;99.90;;;;;;5113759;28;19966;-87
2023/04/08 01:07:27;;;;;;;;;;;4.40;99.90;;;;;;5122104;28;19986;-89
2023/04/08 01:09:55;;;;;;;;;;;4.10;99.90;;;;;;5118153;28;19972;-88
2023/04/08 01:12:26;;;;;;;;;;;4.00;99.90;;;;;;5111647;28;19924;-88
2023/04/08 01:14:54;;;;;;;;;;;5.00;99.90;;;;;;5111673;28;20003;-88
2023/04/08 01:17:22;;;;;;;;;;;4.00;99.90;;;;;;5121739;28;19930;-88
2023/04/08 01:19:48;;;;;;;;;;;3.90;99.90;;;;;;5121839;28;20336;-88
2023/04/08 01:22:34;;;;;;;;;;;4.20;99.90;;;;;;5094251;28;20019;-88
2023/04/08 01:25:03;;;;;;;;;;;4.00;99.90;;;;;;5083912;28;19967;-88
2023/04/08 01:27:32;;;;;;;;;;;5.40;99.90;;;;;;5117076;28;19949;-88
2023/04/08 01:29:58;;;;;;;;;;;5.40;99.90;;;;;;5123714;28;19931;-87
2023/04/08 01:32:24;;;;;;;;;;;3.70;99.90;;;;;;5104759;28;20360;-88
2023/04/08 01:34:50;;;;;;;;;;;3.70;99.90;;;;;;5098770;28;19923;-88
2023/04/08 01:37:16;;;;;;;;;;;1.70;99.90;;;;;;5098948;28;20002;-88
2023/04/08 01:39:42;;;;;;;;;;;3.80;99.90;;;;;;5117543;28;19923;-88
2023/04/08 01:42:08;;;;;;;;;;;3.60;99.90;;;;;;5091786;28;19924;-88
2023/04/08 01:44:34;;;;;;;;;;;4.80;99.90;;;;;;5103912;28;19924;-88
2023/04/08 01:47:00;;;;;;;;;;;3.70;99.90;;;;;;5099457;28;19935;-88
2023/04/08 01:49:26;;;;;;;;;;;3.70;99.90;;;;;;5097549;28;19924;-88
2023/04/08 01:51:52;;;;;;;;;;;4.20;99.90;;;;;;5103085;28;20015;-88
2023/04/08 01:54:18;;;;;;;;;;;3.60;99.90;;;;;;5098260;28;19947;-88
2023/04/08 01:56:46;;;;;;;;;;;3.60;99.90;;;;;;5086842;28;19970;-88
2023/04/08 01:59:14;;;;;;;;;;;3.90;99.90;;;;;;5092098;28;19931;-88
2023/04/08 02:01:41;;;;;;;;;;;3.70;99.90;;;;;;5085740;28;19924;-87
2023/04/08 02:04:07;;;;;;;;;;;3.50;99.90;;;;;;5104874;28;19924;-88
2023/04/08 02:06:33;;;;;;;;;;;3.40;99.90;;;;;;5091586;28;20018;-88
2023/04/08 02:08:59;;;;;;;;;;;3.40;99.90;;;;;;5076748;28;19927;-88
2023/04/08 02:11:25;;;;;;;;;;;3.60;99.90;;;;;;5127931;27;19928;-88
2023/04/08 02:13:51;;;;;;;;;;;4.70;99.90;;;;;;5086345;28;20379;-88
2023/04/08 02:16:23;;;;;;;;;;;3.50;99.90;;;;;;5130113;27;19974;-88
2023/04/08 02:18:57;;;;;;;;;;;3.40;99.90;;;;;;5108292;28;19934;-88
2023/04/08 02:21:26;;;;;;;;;;;3.40;99.90;;;;;;5105580;28;19924;-88
2023/04/08 02:23:53;;;;;;;;;;;3.70;99.90;;;;;;5085889;28;19932;-88
2023/04/08 02:26:20;;;;;;;;;;;3.30;99.90;;;;;;5063626;28;19928;-88
2023/04/08 02:28:47;;;;;;;;;;;3.80;99.90;;;;;;5107706;28;19950;-88
2023/04/08 02:31:12;;;;;;;;;;;3.30;99.90;;;;;;5087763;28;19936;-88
2023/04/08 02:33:39;;;;;;;;;;;3.30;99.90;;;;;;5083648;28;19935;-88
2023/04/08 02:36:05;;;;;;;;;;;3.30;99.90;;;;;;5077704;28;20376;-88
2023/04/08 02:38:31;;;;;;;;;;;3.20;99.90;;;;;;5119281;27;20054;-88
2023/04/08 02:40:57;;;;;;;;;;;3.30;99.90;;;;;;5079007;28;20023;-88
2023/04/08 02:43:30;;;;;;;;;;;3.70;99.90;;;;;;5096226;28;20003;-88
2023/04/08 02:45:56;;;;;;;;;;;4.90;99.90;;;;;;5101608;28;19923;-88
2023/04/08 02:48:22;;;;;;;;;;;3.20;99.90;;;;;;5084258;28;19928;-88
2023/04/08 02:50:47;;;;;;;;;;;4.70;99.90;;;;;;5099296;28;19977;-88
2023/04/08 02:53:13;;;;;;;;;;;3.20;99.90;;;;;;5126035;27;20394;-88
2023/04/08 02:55:39;;;;;;;;;;;3.20;99.90;;;;;;5101799;28;19936;-88
2023/04/08 02:58:04;;;;;;;;;;;4.70;99.90;;;;;;5111988;28;20376;-89
2023/04/08 03:00:30;;;;;;;;;;;3.30;99.90;;;;;;5110184;28;19946;-89
2023/04/08 03:02:56;;;;;;;;;;;3.20;99.90;;;;;;5105399;28;19924;-89
2023/04/08 03:05:21;;;;;;;;;;;3.20;99.90;;;;;;5083774;28;19939;-89
2023/04/08 03:07:47;;;;;;;;;;;3.20;99.90;;;;;;5070432;28;19935;-89
2023/04/08 03:10:13;;;;;;;;;;;3.50;99.90;;;;;;5079160;28;20330;-88
2023/04/08 03:12:41;;;;;;;;;;;3.10;99.90;;;;;;5092990;28;19985;-89
2023/04/08 03:15:06;;;;;;;;;;;3.10;99.90;;;;;;5059816;28;19924;-88
2023/04/08 03:17:33;;;;;;;;;;;3.20;99.90;;;;;;5063403;28;19978;-88
2023/04/08 03:19:59;;;;;;;;;;;3.20;99.90;;;;;;5097518;28;19954;-88
2023/04/08 03:22:25;;;;;;;;;;;3.30;99.90;;;;;;5099963;28;19989;-88
2023/04/08 03:24:51;;;;;;;;;;;3.10;99.90;;;;;;5102451;28;19924;-88
2023/04/08 03:27:16;;;;;;;;;;;4.60;99.90;;;;;;5102830;28;19931;-88
2023/04/08 03:29:42;;;;;;;;;;;3.20;99.90;;;;;;5098472;28;19924;-89
2023/04/08 03:32:08;;;;;;;;;;;3.10;99.90;;;;;;5080864;28;19932;-89
2023/04/08 03:34:33;;;;;;;;;;;2.90;99.90;;;;;;5093791;28;19923;-88
2023/04/08 03:36:59;;;;;;;;;;;2.90;99.90;;;;;;5069730;28;19931;-88
2023/04/08 03:39:25;;;;;;;;;;;4.90;99.90;;;;;;5072582;28;20362;-88
2023/04/08 03:41:50;;;;;;;;;;;2.80;99.90;;;;;;5097627;28;19977;-88
2023/04/08 03:44:16;;;;;;;;;;;5.60;99.90;;;;;;5076918;28;19955;-88
2023/04/08 03:46:44;;;;;;;;;;;4.00;99.90;;;;;;5094399;28;19924;-88
2023/04/08 03:49:09;;;;;;;;;;;2.00;99.90;;;;;;5102429;27;20288;-88
2023/04/08 03:51:38;;;;;;;;;;;3.30;99.90;;;;;;5101544;28;19924;-88
2023/04/08 03:54:04;;;;;;;;;;;1.90;99.90;;;;;;5081564;28;19924;-88
2023/04/08 03:56:30;;;;;;;;;;;3.70;99.90;;;;;;5078192;28;20233;-88
2023/04/08 03:58:55;;;;;;;;;;;2.70;99.90;;;;;;5075107;28;19929;-88
2023/04/08 04:01:21;;;;;;;;;;;2.70;99.90;;;;;;5101175;28;19924;-89
2023/04/08 04:03:46;;;;;;;;;;;2.60;99.90;;;;;;5077768;28;19935;-88
2023/04/08 04:06:12;;;;;;;;;;;3.20;99.90;;;;;;5098063;28;19977;-88
2023/04/08 04:08:37;;;;;;;;;;;2.60;99.90;;;;;;5067032;28;20310;-89
2023/04/08 04:11:03;;;;;;;;;;;3.10;99.90;;;;;;5126092;27;19925;-88
2023/04/08 04:13:29;;;;;;;;;;;2.60;99.90;;;;;;5086206;28;19943;-89
2023/04/08 04:15:55;;;;;;;;;;;2.60;99.90;;;;;;5077776;28;19959;-88
2023/04/08 04:18:21;;;;;;;;;;;3.10;99.90;;;;;;5089699;28;20010;-88
2023/04/08 04:20:46;;;;;;;;;;;3.10;99.90;;;;;;5080035;28;20432;-88
2023/04/08 04:23:12;;;;;;;;;;;2.70;99.90;;;;;;5081841;28;19924;-88
2023/04/08 04:25:40;;;;;;;;;;;2.70;99.90;;;;;;5095991;28;20436;-88
2023/04/08 04:28:08;;;;;;;;;;;2.80;99.90;;;;;;5092654;28;19950;-88
2023/04/08 04:30:38;;;;;;;;;;;4.90;99.90;;;;;;5095717;28;19973;-88
2023/04/08 04:33:04;;;;;;;;;;;2.70;99.90;;;;;;5111709;27;19924;-88
2023/04/08 04:35:29;;;;;;;;;;;2.70;99.90;;;;;;5095960;28;19928;-88
2023/04/08 04:37:55;;;;;;;;;;;3.30;99.90;;;;;;5075065;28;20289;-88
2023/04/08 04:40:21;;;;;;;;;;;4.80;99.90;;;;;;5099388;28;19975;-88
2023/04/08 04:42:46;;;;;;;;;;;2.80;99.90;;;;;;5089819;28;20019;-88
2023/04/08 04:45:12;;;;;;;;;;;3.60;99.90;;;;;;5069893;28;20007;-88
2023/04/08 04:47:38;;;;;;;;;;;2.80;99.90;;;;;;5079818;28;19928;-89
2023/04/08 04:50:04;;;;;;;;;;;3.90;99.90;;;;;;5076975;28;19924;-88
2023/04/08 04:52:30;;;;;;;;;;;2.70;99.90;;;;;;5082929;28;19923;-88
2023/04/08 04:54:58;;;;;;;;;;;2.70;99.90;;;;;;5096739;28;20033;-88
2023/04/08 04:57:24;;;;;;;;;;;2.70;99.90;;;;;;5082131;28;19977;-88
2023/04/08 04:59:50;;;;;;;;;;;2.80;99.90;;;;;;5093670;28;20006;-88
2023/04/08 05:02:15;;;;;;;;;;;3.40;99.90;;;;;;5109587;27;19924;-89
2023/04/08 05:04:41;;;;;;;;;;;4.40;99.90;;;;;;5093821;28;20030;-88
2023/04/08 05:07:07;;;;;;;;;;;4.40;99.90;;;;;;5099612;28;19998;-88
2023/04/08 05:09:32;;;;;;;;;;;3.60;99.90;;;;;;5088945;28;20049;-88
2023/04/08 05:11:58;;;;;;;;;;;3.60;99.90;;;;;;5053912;28;19936;-88
2023/04/08 05:14:23;;;;;;;;;;;3.60;99.90;;;;;;5079897;28;20021;-88
2023/04/08 05:16:51;;;;;;;;;;;3.10;99.90;;;;;;5072867;28;19924;-88
2023/04/08 05:19:17;;;;;;;;;;;2.80;99.90;;;;;;5056196;28;20393;-88
2023/04/08 05:21:42;;;;;;;;;;;2.80;99.90;;;;;;5074481;28;19924;-88
2023/04/08 05:24:08;;;;;;;;;;;3.30;99.90;;;;;;5086734;28;19973;-87
2023/04/08 05:26:35;;;;;;;;;;;2.80;99.90;;;;;;5074349;28;20352;-86
2023/04/08 05:29:01;;;;;;;;;;;2.90;99.90;;;;;;5100931;28;20394;-88
2023/04/08 05:31:27;;;;;;;;;;;3.40;99.90;;;;;;5094524;28;20077;-89
2023/04/08 05:33:52;;;;;;;;;;;2.70;99.90;;;;;;5081258;28;19954;-88
2023/04/08 05:36:18;;;;;;;;;;;2.70;99.90;;;;;;5079070;28;20018;-89
2023/04/08 05:38:44;;;;;;;;;;;2.70;99.90;;;;;;5094138;28;19978;-89
2023/04/08 05:41:10;;;;;;;;;;;2.70;99.90;;;;;;5079086;28;19981;-89
2023/04/08 05:43:35;;;;;;;;;;;2.80;99.90;;;;;;5108054;28;19932;-89
2023/04/08 05:46:08;;;;;;;;;;;2.80;99.90;;;;;;5126604;27;20592;-89
2023/04/08 05:48:34;;;;;;;;;;;3.00;99.90;;;;;;5105712;28;19974;-88
2023/04/08 05:50:59;;;;;;;;;;;5.00;99.90;;;;;;5094659;28;20363;-89
2023/04/08 05:53:25;;;;;;;;;;;4.30;99.90;;;;;;5083562;28;20400;-89
2023/04/08 05:55:51;;;;;;;;;;;5.20;99.90;;;;;;5099502;28;19924;-90
2023/04/08 05:58:16;;;;;;;;;;;4.50;99.90;;;;;;5114011;28;20010;-89
2023/04/08 06:00:45;;;;;;;;;;;3.80;99.90;;;;;;5106773;28;19924;-89
2023/04/08 06:03:10;;;;;;;;;;;1.80;99.90;;;;;;5101187;28;19923;-89
2023/04/08 06:05:36;;;;;;;;;;;3.70;99.90;;;;;;5130447;27;19943;-89
2023/04/08 06:08:02;;;;;;;;;;;4.80;99.90;;;;;;5096582;28;19931;-89
2023/04/08 06:10:27;;;;;;;;;;;4.00;99.90;;;;;;5082562;28;19946;-89
2023/04/08 06:12:53;;;;;;;;;;;4.00;99.90;;;;;;5102714;28;19924;-89
2023/04/08 06:15:19;;;;;;;;;;;4.20;99.90;;;;;;5083677;28;20015;-89
2023/04/08 06:17:45;;;;;;;;;;;4.20;99.90;;;;;;5071849;28;20410;-89
2023/04/08 06:20:11;;;;;;;;;;;4.40;99.90;;;;;;5066470;28;20020;-88
2023/04/08 06:22:36;;;;;;;;;;;4.50;99.90;;;;;;5092387;28;19978;-88
2023/04/08 06:25:02;;;;;;;;;;;4.60;99.90;;;;;;5116926;27;20319;-87
2023/04/08 06:27:28;;;;;;;;;;;4.70;99.90;;;;;;5094271;28;20344;-87
2023/04/08 06:29:54;;;;;;;;;;;4.90;99.90;;;;;;5088637;28;19997;-87
2023/04/08 06:32:20;;;;;;;;;;;5.00;99.90;;;;;;5100993;28;20007;-88
2023/04/08 06:34:46;;;;;;;;;;;5.10;99.90;;;;;;5095012;28;19924;-87
2023/04/08 06:37:11;;;;;;;;;;;5.40;99.90;;;;;;5087545;28;19969;-89
2023/04/08 06:39:37;;;;;;;;;;;5.30;99.90;;;;;;5103193;28;19924;-88
2023/04/08 06:42:02;;;;;;;;;;;5.90;99.90;;;;;;5109608;28;19927;-90
2023/04/08 06:44:28;;;;;;;;;;;6.50;99.90;;;;;;5079153;28;19928;-89
2023/04/08 06:46:54;;;;;;;;;;;5.20;99.90;;;;;;5077413;28;19924;-91
2023/04/08 06:49:20;;;;;;;;;;;5.20;99.90;;;;;;5083857;28;19972;-89
2023/04/08 06:51:48;;;;;;;;;;;5.10;99.90;;;;;;5087057;28;19925;-88
2023/04/08 06:54:14;;;;;;;;;;;5.30;99.90;;;;;;5098603;28;20375;-92
2023/04/08 06:56:40;;;;;;;;;;;3.90;99.90;;;;;;5088459;28;19939;-91
2023/04/08 06:59:08;;;;;;;;;;;5.80;99.90;;;;;;5055851;28;19924;-91
2023/04/08 07:01:33;;;;;;;;;;;3.30;99.90;;;;;;5069173;28;19939;-89
2023/04/08 07:04:01;;;;;;;;;;;5.40;99.90;;;;;;5096951;28;19924;-90
2023/04/08 07:06:26;;;;;;;;;;;5.40;99.90;;;;;;5095428;28;20386;-90
2023/04/08 07:08:52;;;;;;;;;;;5.70;99.90;;;;;;5092252;28;19928;-89
2023/04/08 07:11:18;;;;;;;;;;;5.40;99.90;;;;;;5080912;28;19936;-89
2023/04/08 07:13:43;;;;;;;;;;;5.60;99.90;;;;;;5100830;28;19974;-89
2023/04/08 07:16:09;;;;;;;;;;;5.70;99.90;;;;;;5087874;28;19976;-88
2023/04/08 07:18:35;;;;;;;;;;;6.20;99.90;;;;;;5104921;28;19927;-87
2023/04/08 07:21:01;;;;;;;;;;;6.00;99.90;;;;;;5105782;28;20368;-87
2023/04/08 07:23:27;;;;;;;;;;;5.90;99.90;;;;;;5078652;28;19931;-87
2023/04/08 07:25:52;;;;;;;;;;;5.90;99.90;;;;;;5083585;28;20384;-88
2023/04/08 07:28:18;;;;;;;;;;;5.90;99.90;;;;;;5098175;28;19928;-87
2023/04/08 07:30:44;;;;;;;;;;;5.90;99.90;;;;;;5104983;28;19935;-89
2023/04/08 07:33:10;;;;;;;;;;;5.90;99.90;;;;;;5099073;28;19923;-88
2023/04/08 07:35:35;;;;;;;;;;;6.00;99.90;;;;;;5089634;28;19992;-87
2023/04/08 07:38:01;;;;;;;;;;;6.00;99.90;;;;;;5097167;28;20367;-87
2023/04/08 07:40:27;;;;;;;;;;;6.10;99.90;;;;;;5097041;28;20090;-87
2023/04/08 07:42:53;;;;;;;;;;;6.20;99.90;;;;;;5077924;28;19945;-88
2023/04/08 07:45:19;;;;;;;;;;;6.40;99.90;;;;;;5094030;28;20364;-89
2023/04/08 07:47:44;;;;;;;;;;;6.50;99.90;;;;;;5074123;28;19971;-88
2023/04/08 07:50:10;;;;;;;;;;;6.50;99.90;;;;;;5077115;28;19931;-88
2023/04/08 07:52:36;;;;;;;;;;;6.70;99.90;;;;;;5073732;28;19971;-87
2023/04/08 07:55:02;;;;;;;;;;;6.80;99.90;;;;;;5075717;28;19973;-87
2023/04/08 07:57:27;;;;;;;;;;;6.80;99.90;;;;;;5091385;28;19977;-88
2023/04/08 07:59:53;;;;;;;;;;;6.80;99.90;;;;;;5102056;28;19924;-87
2023/04/08 08:02:18;;;;;;;;;;;6.90;99.90;;;;;;5082767;28;19924;-87
2023/04/08 08:04:44;;;;;;;;;;;7.00;99.90;;;;;;5111407;28;19928;-88
2023/04/08 08:07:10;;;;;;;;;;;7.00;99.90;;;;;;5105760;28;19966;-88
2023/04/08 08:09:35;;;;;;;;;;;7.00;99.90;;;;;;5101909;28;19972;-88
2023/04/08 08:12:01;;;;;;;;;;;7.10;99.90;;;;;;5093419;28;20326;-87
2023/04/08 08:14:27;;;;;;;;;;;7.10;99.90;;;;;;5062646;28;19927;-88
2023/04/08 08:16:53;;;;;;;;;;;7.00;99.90;;;;;;5101058;28;20288;-87
2023/04/08 08:19:19;;;;;;;;;;;7.10;99.90;;;;;;5074291;28;19924;-90
2023/04/08 08:21:45;;;;;;;;;;;7.30;99.90;;;;;;5101951;28;19927;-88
2023/04/08 08:24:13;;;;;;;;;;;7.30;99.90;;;;;;5090993;28;19924;-88
2023/04/08 08:26:39;;;;;;;;;;;7.20;99.90;;;;;;5068396;28;19924;-87
2023/04/08 08:29:07;;;;;;;;;;;7.40;99.90;;;;;;5110188;28;20334;-88
2023/04/08 08:31:33;;;;;;;;;;;7.60;99.90;;;;;;5106074;28;19924;-89
2023/04/08 08:33:59;;;;;;;;;;;7.70;99.90;;;;;;5066637;28;19932;-88
2023/04/08 08:36:26;;;;;;;;;;;7.70;99.90;;;;;;5099562;28;20034;-87
2023/04/08 08:38:52;;;;;;;;;;;7.70;99.90;;;;;;5085381;28;20287;-88
2023/04/08 08:41:19;;;;;;;;;;;7.60;99.90;;;;;;5102162;28;20366;-87
2023/04/08 08:43:45;;;;;;;;;;;7.50;99.90;;;;;;5093885;28;20290;-88
2023/04/08 08:46:11;;;;;;;;;;;7.40;99.90;;;;;;5082978;28;19933;-87
2023/04/08 08:48:37;;;;;;;;;;;7.40;99.90;;;;;;5066460;28;19924;-88
2023/04/08 08:51:09;;;;;;;;;;;7.40;99.90;;;;;;5105255;28;19924;-88
2023/04/08 08:53:35;;;;;;;;;;;7.40;99.90;;;;;;5101213;28;20406;-88
2023/04/08 08:56:01;;;;;;;;;;;7.30;99.90;;;;;;5100023;28;20016;-89
2023/04/08 08:58:27;;;;;;;;;;;7.20;99.90;;;;;;5111169;28;19931;-88
2023/04/08 09:00:52;;;;;;;;;;;7.30;99.90;;;;;;5094367;28;20279;-88
2023/04/08 09:03:28;;;;;;;;;;;7.20;99.90;;;;;;5080074;28;19928;-88
2023/04/08 09:05:58;;;;;;;;;;;7.20;99.90;;;;;;5096403;28;19924;-88
2023/04/08 09:08:31;;;;;;;;;;;7.30;99.90;;;;;;5082701;28;19931;-89
2023/04/08 09:11:12;;;;;;;;;;;7.10;99.90;;;;;;5081148;28;19973;-88
2023/04/08 09:13:38;;;;;;;;;;;7.20;99.90;;;;;;5119317;27;19923;-87
2023/04/08 09:16:04;;;;;;;;;;;7.10;99.90;;;;;;5106148;28;19924;-88
2023/04/08 09:18:31;;;;;;;;;;;7.10;99.90;;;;;;5076295;28;19938;-88
2023/04/08 09:21:00;;;;;;;;;;;7.10;99.90;;;;;;5084382;28;19931;-88
2023/04/08 09:23:45;;;;;;;;;;;7.00;99.90;;;;;;5094195;28;20034;-90
2023/04/08 09:26:19;;;;;;;;;;;6.90;99.90;;;;;;5083037;28;20380;-93
2023/04/08 09:29:03;;;;;;;;;;;6.90;99.90;;;;;;5068611;28;19928;-88
2023/04/08 09:31:32;;;;;;;;;;;7.30;99.90;;;;;;5100425;28;19966;-88
2023/04/08 09:34:01;;;;;;;;;;;6.90;99.90;;;;;;5090719;28;20336;-91
2023/04/08 09:36:29;;;;;;;;;;;7.10;99.90;;;;;;5096239;28;20356;-88
2023/04/08 09:38:55;;;;;;;;;;;7.30;99.90;;;;;;5111159;28;19928;-88
2023/04/08 09:41:24;;;;;;;;;;;7.80;99.90;;;;;;5108939;28;19931;-88
2023/04/08 09:43:53;;;;;;;;;;;7.00;99.90;;;;;;5100904;28;19967;-88
2023/04/08 09:46:25;;;;;;;;;;;9.40;99.90;;;;;;5073739;28;20257;-90
2023/04/08 09:48:57;;;;;;;;;;;7.70;99.90;;;;;;5095508;28;19924;-88
2023/04/08 09:51:23;;;;;;;;;;;7.10;99.90;;;;;;5112334;28;19931;-87
2023/04/08 09:53:54;;;;;;;;;;;7.20;99.90;;;;;;5127456;27;20268;-87
2023/04/08 09:56:20;;;;;;;;;;;7.30;99.90;;;;;;5077794;28;19924;-87
2023/04/08 09:58:58;;;;;;;;;;;7.40;99.90;;;;;;5076999;28;19924;-89
2023/04/08 10:01:28;;;;;;;;;;;7.50;99.90;;;;;;5095069;28;19927;-88
2023/04/08 10:03:56;;;;;;;;;;;7.60;99.90;;;;;;5094632;28;19934;-88
2023/04/08 10:06:26;;;;;;;;;;;7.70;99.90;;;;;;5078158;28;20368;-89
2023/04/08 10:08:52;;;;;;;;;;;7.90;99.90;;;;;;5139731;27;19946;-88
2023/04/08 10:11:18;;;;;;;;;;;7.90;99.90;;;;;;5120240;27;19931;-88
2023/04/08 10:13:43;;;;;;;;;;;7.80;99.90;;;;;;5094060;28;20028;-87
2023/04/08 10:16:16;;;;;;;;;;;7.80;99.90;;;;;;5110078;27;19993;-87
2023/04/08 10:18:43;;;;;;;;;;;7.80;99.90;;;;;;5079465;28;19924;-87
2023/04/08 10:21:29;;;;;;;;;;;7.70;99.90;;;;;;5063339;28;19931;-88
2023/04/08 10:23:59;;;;;;;;;;;7.80;99.90;;;;;;5075952;28;19932;-88
2023/04/08 10:26:35;;;;;;;;;;;7.90;99.90;;;;;;5076125;28;19978;-88
2023/04/08 10:29:16;;;;;;;;;;;8.00;99.90;;;;;;5094115;28;19924;-89
2023/04/08 10:31:41;;;;;;;;;;;7.90;99.90;;;;;;5075844;28;20007;-87
2023/04/08 10:34:17;;;;;;;;;;;7.80;99.90;;;;;;5110857;28;20356;-85
2023/04/08 10:36:43;;;;;;;;;;;7.90;99.90;;;;;;5102219;28;20317;-85
2023/04/08 10:39:09;;;;;;;;;;;7.90;99.90;;;;;;5087762;28;19939;-86
2023/04/08 10:41:34;;;;;;;;;;;8.00;99.90;;;;;;5099338;28;20398;-86
2023/04/08 10:44:03;;;;;;;;;;;8.20;99.90;;;;;;5129070;27;19924;-90
2023/04/08 10:46:36;;;;;;;;;;;8.30;99.90;;;;;;5077168;28;20343;-87
2023/04/08 10:49:02;;;;;;;;;;;8.20;99.90;;;;;;5092556;28;20493;-87
2023/04/08 10:51:31;;;;;;;;;;;8.20;99.90;;;;;;5092687;28;20003;-88
2023/04/08 10:54:04;;;;;;;;;;;8.30;99.90;;;;;;5091236;28;19928;-87
2023/04/08 10:56:30;;;;;;;;;;;8.30;99.90;;;;;;5092255;28;20321;-88
2023/04/08 10:58:55;;;;;;;;;;;8.40;99.90;;;;;;5117680;27;19925;-87
2023/04/08 11:01:21;;;;;;;;;;;8.50;99.90;;;;;;5091104;28;20023;-88
2023/04/08 11:03:47;;;;;;;;;;;8.60;99.90;;;;;;5092875;28;19932;-87
2023/04/08 11:06:13;;;;;;;;;;;8.70;99.90;;;;;;5091975;28;19924;-87
2023/04/08 11:08:39;;;;;;;;;;;8.90;99.90;;;;;;5125157;27;19951;-86
2023/04/08 11:11:11;;;;;;;;;;;9.10;99.90;;;;;;5075287;28;20264;-87
2023/04/08 11:13:38;;;;;;;;;;;9.20;99.90;;;;;;5107445;28;20336;-86
2023/04/08 11:16:05;;;;;;;;;;;9.10;99.90;;;;;;5120295;27;20001;-87
2023/04/08 11:18:33;;;;;;;;;;;9.10;99.90;;;;;;5094583;28;19924;-87
2023/04/08 11:20:59;;;;;;;;;;;9.20;99.90;;;;;;5070831;28;19935;-87
2023/04/08 11:23:25;;;;;;;;;;;9.30;99.90;;;;;;5065798;28;19931;-87
2023/04/08 11:25:53;;;;;;;;;;;9.20;99.90;;;;;;5122420;27;19935;-87
2023/04/08 11:28:19;;;;;;;;;;;9.20;99.90;;;;;;5091604;28;19928;-87
2023/04/08 11:30:46;;;;;;;;;;;9.20;99.90;;;;;;5095523;28;20440;-87
2023/04/08 11:33:12;;;;;;;;;;;9.20;99.90;;;;;;5128923;27;19984;-87
2023/04/08 11:35:42;;;;;;;;;;;9.30;99.90;;;;;;5072987;28;20364;-87
2023/04/08 11:38:08;;;;;;;;;;;9.20;99.90;;;;;;5110372;27;19939;-87
2023/04/08 11:40:33;;;;;;;;;;;9.30;99.90;;;;;;5098854;28;20057;-88
2023/04/08 11:43:07;;;;;;;;;;;9.30;99.90;;;;;;5093994;28;20015;-87
2023/04/08 11:45:36;;;;;;;;;;;9.40;99.90;;;;;;5111053;27;19924;-89
2023/04/08 11:48:07;;;;;;;;;;;9.50;99.90;;;;;;5091286;28;19927;-85
2023/04/08 11:50:33;;;;;;;;;;;9.40;99.90;;;;;;5092088;28;19931;-87
2023/04/08 11:52:59;;;;;;;;;;;9.60;99.90;;;;;;5117494;27;19928;-88
2023/04/08 11:55:34;;;;;;;;;;;9.60;99.90;;;;;;5092724;28;19973;-88
2023/04/08 11:58:06;;;;;;;;;;;9.50;99.90;;;;;;5126504;27;19923;-87
2023/04/08 12:00:31;;;;;;;;;;;9.40;99.90;;;;;;5076653;28;19928;-87
2023/04/08 12:02:57;;;;;;;;;;;9.40;99.90;;;;;;5076166;28;20451;-87
2023/04/08 12:05:25;;;;;;;;;;;9.40;99.90;;;;;;5056871;28;19932;-88
2023/04/08 12:07:51;;;;;;;;;;;8.10;99.90;;;;;;5078835;28;19934;-88
2023/04/08 12:10:16;;;;;;;;;;;9.40;99.90;;;;;;5089333;28;19924;-88
2023/04/08 12:12:42;;;;;;;;;;;9.70;99.90;;;;;;5080899;28;19939;-87
2023/04/08 12:15:08;;;;;;;;;;;9.70;99.90;;;;;;5082853;28;19941;-88
2023/04/08 12:17:37;;;;;;;;;;;9.50;99.90;;;;;;5093157;28;19924;-87
2023/04/08 12:20:03;;;;;;;;;;;9.50;99.90;;;;;;5092903;28;19923;-87
2023/04/08 12:22:31;;;;;;;;;;;9.50;99.90;;;;;;5081879;28;20023;-88
2023/04/08 12:24:57;;;;;;;;;;;9.50;99.90;;;;;;5084148;28;19924;-88
2023/04/08 12:27:25;;;;;;;;;;;9.70;99.90;;;;;;5075775;28;19977;-87
2023/04/08 12:29:56;;;;;;;;;;;7.70;99.90;;;;;;5121547;27;19928;-86
2023/04/08 12:32:24;;;;;;;;;;;10.40;99.90;;;;;;5098996;28;19924;-86
2023/04/08 12:34:50;;;;;;;;;;;9.50;99.90;;;;;;5094162;28;20018;-86
2023/04/08 12:37:25;;;;;;;;;;;9.40;99.90;;;;;;5084047;28;19924;-87
2023/04/08 12:39:51;;;;;;;;;;;10.30;99.90;;;;;;5093696;28;19928;-86
2023/04/08 12:42:17;;;;;;;;;;;10.30;99.90;;;;;;5112248;28;19931;-87
2023/04/08 12:44:42;;;;;;;;;;;9.60;99.90;;;;;;5093495;28;20360;-86
2023/04/08 12:47:08;;;;;;;;;;;9.70;99.90;;;;;;5065485;28;19927;-87
2023/04/08 12:49:34;;;;;;;;;;;9.70;99.90;;;;;;5081392;28;19924;-87
2023/04/08 12:51:59;;;;;;;;;;;9.50;99.90;;;;;;5058776;28;19931;-88
2023/04/08 12:54:25;;;;;;;;;;;9.60;99.90;;;;;;5092517;28;19978;-87
2023/04/08 12:56:51;;;;;;;;;;;9.50;99.90;;;;;;5082906;28;19924;-86
2023/04/08 12:59:18;;;;;;;;;;;9.70;99.90;;;;;;5100450;28;19924;-87
2023/04/08 13:01:44;;;;;;;;;;;9.70;99.90;;;;;;5060691;28;20016;-87
2023/04/08 13:04:10;;;;;;;;;;;9.70;99.90;;;;;;5088180;28;20013;-86
2023/04/08 13:06:38;;;;;;;;;;;9.70;99.90;;;;;;5063119;28;19931;-87
2023/04/08 13:09:04;;;;;;;;;;;9.70;99.90;;;;;;5093040;28;19931;-86
2023/04/08 13:11:29;;;;;;;;;;;9.70;99.90;;;;;;5053907;28;20256;-88
2023/04/08 13:13:56;;;;;;;;;;;9.70;99.90;;;;;;5125518;27;19989;-86
2023/04/08 13:16:21;;;;;;;;;;;9.70;99.90;;;;;;5083180;28;20291;-87
2023/04/08 13:18:47;;;;;;;;;;;9.80;99.90;;;;;;5062337;28;19924;-87
2023/04/08 13:21:12;;;;;;;;;;;9.80;99.90;;;;;;5084612;28;19924;-88
2023/04/08 13:23:38;;;;;;;;;;;9.90;99.90;;;;;;5124198;27;19971;-87
2023/04/08 13:26:05;;;;;;;;;;;10.00;99.90;;;;;;5073923;28;20003;-88
2023/04/08 13:28:31;;;;;;;;;;;10.00;99.90;;;;;;5089460;28;20275;-88
2023/04/08 13:30:56;;;;;;;;;;;10.10;99.90;;;;;;5077736;28;19924;-88
2023/04/08 13:33:22;;;;;;;;;;;10.50;99.90;;;;;;5087254;28;19925;-88
2023/04/08 13:35:50;;;;;;;;;;;8.70;99.90;;;;;;5076175;28;19979;-87
2023/04/08 13:38:18;;;;;;;;;;;10.00;99.90;;;;;;5118712;27;19930;-87
2023/04/08 13:40:47;;;;;;;;;;;10.20;99.90;;;;;;5072499;28;19939;-88
2023/04/08 13:43:13;;;;;;;;;;;10.00;99.90;;;;;;5076852;28;19924;-88
2023/04/08 13:45:39;;;;;;;;;;;10.20;99.90;;;;;;5078979;28;19931;-88
2023/04/08 13:48:15;;;;;;;;;;;10.30;99.90;;;;;;5094599;28;20406;-89
2023/04/08 13:50:41;;;;;;;;;;;10.40;99.90;;;;;;5093132;28;20228;-87
2023/04/08 13:53:09;;;;;;;;;;;10.30;99.90;;;;;;5093269;28;19925;-86
2023/04/08 13:55:34;;;;;;;;;;;10.00;99.90;;;;;;5077424;28;19963;-86
2023/04/08 13:58:00;;;;;;;;;;;10.10;99.90;;;;;;5086539;28;19970;-87
2023/04/08 14:00:26;;;;;;;;;;;10.20;99.90;;;;;;5089470;28;20290;-87
2023/04/08 14:02:54;;;;;;;;;;;10.60;99.90;;;;;;5104458;28;20066;-86
2023/04/08 14:05:20;;;;;;;;;;;10.20;99.90;;;;;;5090039;28;19925;-87
2023/04/08 14:07:46;;;;;;;;;;;10.20;99.90;;;;;;5070082;28;19923;-86
2023/04/08 14:10:13;;;;;;;;;;;10.40;99.90;;;;;;5087790;28;19953;-87
2023/04/08 14:12:41;;;;;;;;;;;10.70;99.90;;;;;;5095311;28;19928;-86
2023/04/08 14:15:07;;;;;;;;;;;10.90;99.90;;;;;;5066733;28;19924;-86
2023/04/08 14:17:34;;;;;;;;;;;10.50;99.90;;;;;;5082553;28;19924;-86
2023/04/08 14:20:05;;;;;;;;;;;11.20;99.90;;;;;;5103104;28;19923;-86
2023/04/08 14:22:30;;;;;;;;;;;10.70;99.90;;;;;;5087232;28;20011;-87
2023/04/08 14:24:56;;;;;;;;;;;10.70;99.90;;;;;;5077837;28;20043;-87
2023/04/08 14:27:22;;;;;;;;;;;10.80;99.90;;;;;;5109042;27;19924;-87